createdAt,value
2016-07-02T00:00:37.855Z,18.41
2016-07-02T00:01:37.860Z,18.36
2016-07-02T00:02:37.866Z,18.35
2016-07-02T00:03:37.861Z,18.32
2016-07-02T00:04:37.858Z,18.33
2016-07-02T00:05:37.859Z,18.3
2016-07-02T00:06:37.849Z,18.33
2016-07-02T00:07:37.948Z,18.37
2016-07-02T00:08:40.888Z,18.32
2016-07-02T00:09:38.343Z,18.32
2016-07-02T00:10:39.337Z,18.3
2016-07-02T00:11:38.710Z,18.35
2016-07-02T00:12:37.849Z,18.42
2016-07-02T00:13:37.878Z,18.45
2016-07-02T00:14:37.852Z,18.3
2016-07-02T00:15:37.853Z,18.36
2016-07-02T00:16:37.849Z,18.27
2016-07-02T00:17:39.199Z,18.32
2016-07-02T00:18:39.181Z,18.27
2016-07-02T00:19:39.450Z,18.29
2016-07-02T00:20:37.850Z,18.32
2016-07-02T00:21:39.057Z,18.29
2016-07-02T00:22:37.848Z,18.23
2016-07-02T00:23:37.855Z,18.27
2016-07-02T00:24:37.851Z,18.18
2016-07-02T00:25:37.853Z,18.17
2016-07-02T00:26:37.844Z,18.18
2016-07-02T00:27:37.851Z,18.15
2016-07-02T00:28:38.464Z,18.05
2016-07-02T00:29:37.850Z,18.11
2016-07-02T00:30:37.850Z,18.08
2016-07-02T00:31:37.853Z,18.08
2016-07-02T00:32:37.849Z,17.99
2016-07-02T00:33:37.854Z,18.07
2016-07-02T00:34:37.849Z,17.96
2016-07-02T00:35:37.846Z,17.9
2016-07-02T00:36:37.844Z,17.89
2016-07-02T00:37:37.842Z,17.87
2016-07-02T00:38:37.843Z,17.92
2016-07-02T00:39:37.853Z,17.87
2016-07-02T00:40:37.848Z,17.82
2016-07-02T00:41:37.841Z,17.89
2016-07-02T00:42:37.841Z,17.87
2016-07-02T00:43:37.839Z,17.86
2016-07-02T00:44:37.844Z,17.82
2016-07-02T00:45:37.840Z,17.78
2016-07-02T00:46:37.838Z,17.81
2016-07-02T00:47:37.827Z,17.84
2016-07-02T00:48:37.828Z,17.86
2016-07-02T00:49:37.838Z,17.81
2016-07-02T00:50:37.829Z,17.74
2016-07-02T00:51:37.837Z,17.84
2016-07-02T00:52:37.831Z,17.78
2016-07-02T00:53:37.839Z,17.81
2016-07-02T00:54:37.833Z,17.82
2016-07-02T00:55:37.834Z,17.77
2016-07-02T00:56:37.831Z,17.79
2016-07-02T00:57:37.832Z,17.75
2016-07-02T00:58:37.833Z,17.78
2016-07-02T00:59:37.823Z,17.78
2016-07-02T01:01:38.848Z,17.7
2016-07-02T01:02:37.834Z,17.72
2016-07-02T01:03:37.818Z,17.7
2016-07-02T01:04:37.824Z,17.62
2016-07-02T01:05:38.021Z,17.59
2016-07-02T01:06:37.931Z,17.59
2016-07-02T01:07:37.826Z,17.56
2016-07-02T01:08:37.823Z,17.54
2016-07-02T01:09:38.569Z,17.46
2016-07-02T01:10:37.874Z,17.43
2016-07-02T01:11:38.813Z,17.41
2016-07-02T01:12:39.069Z,17.36
2016-07-02T01:13:37.814Z,17.4
2016-07-02T01:14:37.918Z,17.41
2016-07-02T01:15:37.815Z,17.3
2016-07-02T01:16:37.816Z,17.26
2016-07-02T01:17:37.961Z,17.25
2016-07-02T01:18:37.813Z,17.34
2016-07-02T01:19:37.804Z,17.26
2016-07-02T01:20:37.813Z,17.22
2016-07-02T01:21:37.816Z,17.22
2016-07-02T01:22:38.414Z,17.18
2016-07-02T01:23:37.812Z,17.19
2016-07-02T01:24:37.819Z,17.14
2016-07-02T01:25:37.804Z,17.19
2016-07-02T01:26:39.310Z,17.08
2016-07-02T01:27:38.211Z,17.12
2016-07-02T01:28:38.896Z,17.07
2016-07-02T01:29:37.802Z,17.07
2016-07-02T01:30:39.730Z,17.07
2016-07-02T01:31:38.670Z,17.03
2016-07-02T01:32:37.803Z,17
2016-07-02T01:33:37.797Z,16.97
2016-07-02T01:34:37.800Z,16.98
2016-07-02T01:35:37.811Z,16.88
2016-07-02T01:37:39.694Z,16.89
2016-07-02T01:38:37.798Z,16.93
2016-07-02T01:39:38.492Z,16.79
2016-07-02T01:40:38.062Z,16.83
2016-07-02T01:41:37.786Z,16.81
2016-07-02T01:42:37.797Z,16.83
2016-07-02T01:43:38.389Z,16.82
2016-07-02T01:44:37.790Z,16.81
2016-07-02T01:45:37.791Z,16.89
2016-07-02T01:46:37.787Z,16.79
2016-07-02T01:47:37.783Z,16.75
2016-07-02T01:48:37.785Z,16.76
2016-07-02T01:49:37.780Z,16.7
2016-07-02T01:50:37.782Z,16.71
2016-07-02T01:51:37.776Z,16.73
2016-07-02T01:52:37.787Z,16.73
2016-07-02T01:53:37.779Z,16.71
2016-07-02T01:54:37.773Z,16.75
2016-07-02T01:55:37.775Z,16.7
2016-07-02T01:56:37.767Z,16.75
2016-07-02T01:57:37.774Z,16.68
2016-07-02T01:58:37.780Z,16.63
2016-07-02T01:59:37.770Z,16.64
2016-07-02T02:00:37.767Z,16.66
2016-07-02T02:01:37.769Z,16.56
2016-07-02T02:02:37.767Z,16.5
2016-07-02T02:03:37.765Z,16.58
2016-07-02T02:04:37.761Z,16.57
2016-07-02T02:05:37.758Z,16.48
2016-07-02T02:06:37.763Z,16.48
2016-07-02T02:07:37.855Z,16.42
2016-07-02T02:08:37.758Z,16.48
2016-07-02T02:09:37.752Z,16.46
2016-07-02T02:10:37.756Z,16.43
2016-07-02T02:11:37.753Z,16.42
2016-07-02T02:12:37.749Z,16.45
2016-07-02T02:13:37.750Z,16.41
2016-07-02T02:14:37.747Z,16.46
2016-07-02T02:15:37.751Z,16.41
2016-07-02T02:16:37.747Z,16.45
2016-07-02T02:17:37.761Z,16.45
2016-07-02T02:18:38.750Z,16.41
2016-07-02T02:19:37.839Z,16.41
2016-07-02T02:20:37.734Z,16.35
2016-07-02T02:21:37.941Z,16.35
2016-07-02T02:22:38.186Z,16.38
2016-07-02T02:23:37.796Z,16.31
2016-07-02T02:24:37.739Z,16.39
2016-07-02T02:25:37.730Z,16.28
2016-07-02T02:26:37.732Z,16.33
2016-07-02T02:27:37.727Z,16.28
2016-07-02T02:28:38.835Z,16.28
2016-07-02T02:29:38.288Z,16.3
2016-07-02T02:31:37.731Z,16.31
2016-07-02T02:32:37.726Z,16.31
2016-07-02T02:33:37.729Z,16.33
2016-07-02T02:34:37.721Z,16.23
2016-07-02T02:35:37.719Z,16.24
2016-07-02T02:36:37.722Z,16.28
2016-07-02T02:37:37.712Z,16.21
2016-07-02T02:38:37.713Z,16.27
2016-07-02T02:39:37.715Z,16.31
2016-07-02T02:40:37.710Z,16.24
2016-07-02T02:41:37.699Z,16.28
2016-07-02T02:42:37.710Z,16.25
2016-07-02T02:43:37.704Z,16.23
2016-07-02T02:44:37.704Z,16.21
2016-07-02T02:46:39.330Z,16.08
2016-07-02T02:47:37.711Z,16.11
2016-07-02T02:48:39.159Z,16.12
2016-07-02T02:49:39.093Z,16.07
2016-07-02T02:50:38.294Z,16.15
2016-07-02T02:51:37.693Z,16.17
2016-07-02T02:52:37.695Z,16.08
2016-07-02T02:53:37.696Z,16.21
2016-07-02T02:54:39.186Z,16.12
2016-07-02T02:55:38.470Z,16.11
2016-07-02T02:56:38.894Z,16.08
2016-07-02T02:57:37.688Z,16.15
2016-07-02T02:58:38.406Z,16.12
2016-07-02T02:59:38.063Z,16.09
2016-07-02T03:00:37.678Z,16.12
2016-07-02T03:01:37.672Z,16.25
2016-07-02T03:02:37.672Z,16.24
2016-07-02T03:03:37.676Z,16.23
2016-07-02T03:04:37.672Z,16.21
2016-07-02T03:05:37.683Z,16.28
2016-07-02T03:06:37.667Z,16.24
2016-07-02T03:07:37.665Z,16.24
2016-07-02T03:08:37.677Z,16.25
2016-07-02T03:09:37.671Z,16.33
2016-07-02T03:10:37.661Z,16.34
2016-07-02T03:11:37.659Z,16.33
2016-07-02T03:12:37.657Z,16.35
2016-07-02T03:13:37.655Z,16.34
2016-07-02T03:14:37.659Z,16.35
2016-07-02T03:15:37.651Z,16.45
2016-07-02T03:16:37.643Z,16.48
2016-07-02T03:17:37.651Z,16.53
2016-07-02T03:18:37.643Z,16.56
2016-07-02T03:19:37.641Z,16.58
2016-07-02T03:20:37.638Z,16.53
2016-07-02T03:21:37.643Z,16.63
2016-07-02T03:22:37.644Z,16.66
2016-07-02T03:23:37.646Z,16.6
2016-07-02T03:24:37.637Z,16.76
2016-07-02T03:25:37.644Z,16.75
2016-07-02T03:26:37.623Z,16.81
2016-07-02T03:27:37.643Z,16.91
2016-07-02T03:28:37.626Z,17.06
2016-07-02T03:29:37.628Z,17.22
2016-07-02T03:30:37.635Z,17.4
2016-07-02T03:31:37.633Z,17.58
2016-07-02T03:32:37.630Z,17.79
2016-07-02T03:33:37.631Z,18.05
2016-07-02T03:34:37.630Z,18.29
2016-07-02T03:35:37.630Z,18.37
2016-07-02T03:36:37.624Z,18.67
2016-07-02T03:37:38.173Z,18.92
2016-07-02T03:38:38.230Z,19.14
2016-07-02T03:39:38.683Z,19.44
2016-07-02T03:40:37.923Z,19.68
2016-07-02T03:41:38.342Z,19.86
2016-07-02T03:42:38.384Z,20.05
2016-07-02T03:43:37.625Z,20.32
2016-07-02T03:44:37.626Z,20.54
2016-07-02T03:45:37.631Z,20.82
2016-07-02T03:46:38.778Z,20.98
2016-07-02T03:47:38.378Z,21.21
2016-07-02T03:48:37.732Z,21.47
2016-07-02T03:49:37.628Z,21.65
2016-07-02T03:50:37.726Z,21.88
2016-07-02T03:51:37.692Z,22.1
2016-07-02T03:52:37.636Z,22.36
2016-07-02T03:53:37.636Z,22.51
2016-07-02T03:54:37.644Z,22.6
2016-07-02T03:55:37.646Z,22.9
2016-07-02T03:56:37.655Z,23.05
2016-07-02T03:57:37.655Z,23.17
2016-07-02T03:58:37.656Z,23.48
2016-07-02T03:59:37.657Z,23.7
2016-07-02T04:00:37.668Z,23.85
2016-07-02T04:01:37.666Z,24.05
2016-07-02T04:02:37.671Z,24.28
2016-07-02T04:04:37.988Z,24.61
2016-07-02T04:05:38.878Z,24.78
2016-07-02T04:06:38.145Z,24.96
2016-07-02T04:07:39.263Z,25.09
2016-07-02T04:08:37.707Z,25.23
2016-07-02T04:09:37.713Z,25.47
2016-07-02T04:10:37.708Z,25.62
2016-07-02T04:11:37.730Z,25.83
2016-07-02T04:12:39.290Z,25.99
2016-07-02T04:13:37.969Z,26.13
2016-07-02T04:14:38.097Z,26.23
2016-07-02T04:15:38.197Z,26.32
2016-07-02T04:16:37.811Z,26.37
2016-07-02T04:17:38.521Z,26.51
2016-07-02T04:18:37.773Z,26.65
2016-07-02T04:19:37.773Z,26.8
2016-07-02T04:20:37.779Z,26.85
2016-07-02T04:21:37.790Z,26.8
2016-07-02T04:22:37.800Z,26.85
2016-07-02T04:23:37.815Z,26.87
2016-07-02T04:24:37.816Z,27.04
2016-07-02T04:25:37.825Z,27.17
2016-07-02T04:26:37.839Z,27.46
2016-07-02T04:27:37.838Z,27.69
2016-07-02T04:28:37.848Z,27.88
2016-07-02T04:29:37.865Z,28.11
2016-07-02T04:30:37.865Z,28.17
2016-07-02T04:31:37.878Z,28.39
2016-07-02T04:32:37.889Z,28.37
2016-07-02T04:33:37.888Z,28.55
2016-07-02T04:34:37.899Z,28.68
2016-07-02T04:35:37.897Z,28.8
2016-07-02T04:36:37.915Z,28.92
2016-07-02T04:37:37.922Z,28.89
2016-07-02T04:38:37.934Z,28.95
2016-07-02T04:39:37.950Z,28.93
2016-07-02T04:40:37.951Z,29.04
2016-07-02T04:41:37.957Z,29.16
2016-07-02T04:42:37.980Z,29.36
2016-07-02T04:43:37.988Z,29.48
2016-07-02T04:44:37.997Z,29.57
2016-07-02T04:45:38.005Z,29.86
2016-07-02T04:46:38.021Z,29.94
2016-07-02T04:47:38.036Z,30.19
2016-07-02T04:48:38.039Z,30.47
2016-07-02T04:49:38.055Z,30.79
2016-07-02T04:50:38.058Z,31.09
2016-07-02T04:51:38.066Z,31.44
2016-07-02T04:52:38.086Z,31.73
2016-07-02T04:53:38.098Z,32.01
2016-07-02T04:54:38.105Z,32.23
2016-07-02T04:55:53.008Z,32.6
2016-07-02T04:56:38.477Z,32.66
2016-07-02T04:57:38.989Z,32.89
2016-07-02T04:58:39.296Z,33.23
2016-07-02T04:59:38.753Z,33.42
2016-07-02T05:00:38.169Z,33.66
2016-07-02T05:01:38.178Z,33.81
2016-07-02T05:02:38.199Z,33.91
2016-07-02T05:03:38.209Z,34.02
2016-07-02T05:04:39.172Z,34.02
2016-07-02T05:05:38.680Z,34
2016-07-02T05:06:38.546Z,34.03
2016-07-02T05:07:38.294Z,34.08
2016-07-02T05:08:38.259Z,34.03
2016-07-02T05:09:38.267Z,33.97
2016-07-02T05:10:38.294Z,33.81
2016-07-02T05:11:38.297Z,33.63
2016-07-02T05:12:38.479Z,33.51
2016-07-02T05:13:38.328Z,33.38
2016-07-02T05:14:38.346Z,33.42
2016-07-02T05:15:38.961Z,33.38
2016-07-02T05:16:38.377Z,33.38
2016-07-02T05:17:38.381Z,33.35
2016-07-02T05:18:38.407Z,33.39
2016-07-02T05:19:38.407Z,33.57
2016-07-02T05:20:38.435Z,33.79
2016-07-02T05:22:39.147Z,33.91
2016-07-02T05:23:41.360Z,34.08
2016-07-02T05:24:38.486Z,34.13
2016-07-02T05:25:38.670Z,34.24
2016-07-02T05:26:38.518Z,34.52
2016-07-02T05:27:38.519Z,34.62
2016-07-02T05:28:38.549Z,34.78
2016-07-02T05:29:38.542Z,34.82
2016-07-02T05:30:38.577Z,34.73
2016-07-02T05:31:39.422Z,34.47
2016-07-02T05:32:38.648Z,34.24
2016-07-02T05:33:39.740Z,34.08
2016-07-02T05:34:39.478Z,33.76
2016-07-02T05:35:39.015Z,33.76
2016-07-02T05:36:38.657Z,33.61
2016-07-02T05:37:38.666Z,33.47
2016-07-02T05:38:38.684Z,33.18
2016-07-02T05:39:38.701Z,32.93
2016-07-02T05:40:38.712Z,32.74
2016-07-02T05:41:38.724Z,32.44
2016-07-02T05:42:38.737Z,32.08
2016-07-02T05:43:38.751Z,31.68
2016-07-02T05:44:38.760Z,31.34
2016-07-02T05:45:38.776Z,31.02
2016-07-02T05:46:38.793Z,30.61
2016-07-02T05:47:38.799Z,30.38
2016-07-02T05:48:38.812Z,30.02
2016-07-02T05:49:38.837Z,29.83
2016-07-02T05:50:38.833Z,29.65
2016-07-02T05:51:38.840Z,29.52
2016-07-02T05:52:38.854Z,29.33
2016-07-02T05:53:38.867Z,29.39
2016-07-02T05:54:38.878Z,29.58
2016-07-02T05:55:38.886Z,29.83
2016-07-02T05:56:38.892Z,30.15
2016-07-02T05:57:38.913Z,30.34
2016-07-02T05:58:38.911Z,30.75
2016-07-02T05:59:38.924Z,31.16
2016-07-02T06:00:38.944Z,31.5
2016-07-02T06:01:38.953Z,31.88
2016-07-02T06:02:38.963Z,32.04
2016-07-02T06:03:38.970Z,32.25
2016-07-02T06:04:38.985Z,32.4
2016-07-02T06:05:38.995Z,32.62
2016-07-02T06:06:39.009Z,32.82
2016-07-02T06:07:39.017Z,33.18
2016-07-02T06:08:39.032Z,33.5
2016-07-02T06:09:39.054Z,33.84
2016-07-02T06:10:39.065Z,33.98
2016-07-02T06:11:39.073Z,34.19
2016-07-02T06:12:39.084Z,34.4
2016-07-02T06:13:53.990Z,34.62
2016-07-02T06:14:39.865Z,34.87
2016-07-02T06:15:40.022Z,35.1
2016-07-02T06:16:39.137Z,35.25
2016-07-02T06:17:39.155Z,35.55
2016-07-02T06:18:39.169Z,35.65
2016-07-02T06:19:39.472Z,35.72
2016-07-02T06:20:39.208Z,36.01
2016-07-02T06:21:39.272Z,36.2
2016-07-02T06:22:39.232Z,36.22
2016-07-02T06:23:39.553Z,36.43
2016-07-02T06:24:39.860Z,36.53
2016-07-02T06:26:39.296Z,37.13
2016-07-02T06:27:39.313Z,37.43
2016-07-02T06:28:40.037Z,37.55
2016-07-02T06:29:39.338Z,37.78
2016-07-02T06:30:39.367Z,37.97
2016-07-02T06:31:39.380Z,38.18
2016-07-02T06:32:39.401Z,38.19
2016-07-02T06:33:39.418Z,38.23
2016-07-02T06:34:39.435Z,38.31
2016-07-02T06:35:39.446Z,38.59
2016-07-02T06:36:39.466Z,38.84
2016-07-02T06:37:39.494Z,39.03
2016-07-02T06:38:39.509Z,39.09
2016-07-02T06:39:39.526Z,39.25
2016-07-02T06:40:40.819Z,39.5
2016-07-02T06:41:40.875Z,39.78
2016-07-02T06:42:40.602Z,39.86
2016-07-02T06:43:39.631Z,39.88
2016-07-02T06:44:39.638Z,39.73
2016-07-02T06:45:40.492Z,39.75
2016-07-02T06:46:39.673Z,39.62
2016-07-02T06:47:39.693Z,39.6
2016-07-02T06:48:39.720Z,39.48
2016-07-02T06:50:41.994Z,39.66
2016-07-02T06:51:40.815Z,39.92
2016-07-02T06:52:39.797Z,40.22
2016-07-02T06:53:40.551Z,40.39
2016-07-02T06:54:40.618Z,40.53
2016-07-02T06:55:39.859Z,40.54
2016-07-02T06:56:39.882Z,40.51
2016-07-02T06:57:39.902Z,40.55
2016-07-02T06:58:39.929Z,40.6
2016-07-02T06:59:39.938Z,40.27
2016-07-02T07:00:39.963Z,40.06
2016-07-02T07:01:39.984Z,39.88
2016-07-02T07:02:40.000Z,39.78
2016-07-02T07:03:40.022Z,39.78
2016-07-02T07:04:40.051Z,39.63
2016-07-02T07:05:40.065Z,39.36
2016-07-02T07:06:40.077Z,39.32
2016-07-02T07:07:40.165Z,39.36
2016-07-02T07:08:40.129Z,39.62
2016-07-02T07:09:40.152Z,39.81
2016-07-02T07:10:40.175Z,39.91
2016-07-02T07:11:40.189Z,39.7
2016-07-02T07:12:40.220Z,39.69
2016-07-02T07:13:40.237Z,39.66
2016-07-02T07:14:40.252Z,39.7
2016-07-02T07:15:40.275Z,39.55
2016-07-02T07:16:40.308Z,39.67
2016-07-02T07:17:40.325Z,39.57
2016-07-02T07:18:40.350Z,39.67
2016-07-02T07:19:40.369Z,39.82
2016-07-02T07:20:40.392Z,39.89
2016-07-02T07:21:40.421Z,39.92
2016-07-02T07:22:40.432Z,39.89
2016-07-02T07:23:40.457Z,39.84
2016-07-02T07:24:40.475Z,39.84
2016-07-02T07:25:40.505Z,39.91
2016-07-02T07:26:40.522Z,39.97
2016-07-02T07:27:40.547Z,40.04
2016-07-02T07:28:40.575Z,40.22
2016-07-02T07:29:40.584Z,40.23
2016-07-02T07:30:40.609Z,40.23
2016-07-02T07:31:40.636Z,40.04
2016-07-02T07:32:41.750Z,39.94
2016-07-02T07:33:40.679Z,39.6
2016-07-02T07:34:41.954Z,39.47
2016-07-02T07:35:40.728Z,39.4
2016-07-02T07:36:40.844Z,39.5
2016-07-02T07:37:40.772Z,39.88
2016-07-02T07:38:41.040Z,40.15
2016-07-02T07:39:40.813Z,40.04
2016-07-02T07:40:40.827Z,39.97
2016-07-02T07:41:43.005Z,40.07
2016-07-02T07:42:40.930Z,40.1
2016-07-02T07:43:41.002Z,40.13
2016-07-02T07:44:40.921Z,40.16
2016-07-02T07:45:41.049Z,40.15
2016-07-02T07:46:40.967Z,40.1
2016-07-02T07:47:40.982Z,39.91
2016-07-02T07:48:41.008Z,39.77
2016-07-02T07:49:41.032Z,39.64
2016-07-02T07:50:41.048Z,39.41
2016-07-02T07:51:41.074Z,39.18
2016-07-02T07:52:41.095Z,39.1
2016-07-02T07:53:41.135Z,38.86
2016-07-02T07:54:41.142Z,38.9
2016-07-02T07:55:41.166Z,38.74
2016-07-02T07:56:41.185Z,38.6
2016-07-02T07:57:41.209Z,38.52
2016-07-02T07:58:42.714Z,38.56
2016-07-02T07:59:41.975Z,38.49
2016-07-02T08:00:41.449Z,38.34
2016-07-02T08:01:41.277Z,38.41
2016-07-02T08:02:42.217Z,38.19
2016-07-02T08:03:41.317Z,37.93
2016-07-02T08:04:41.333Z,37.55
2016-07-02T08:05:41.359Z,37.28
2016-07-02T08:06:41.367Z,37.12
2016-07-02T08:08:41.934Z,36.54
2016-07-02T08:09:43.498Z,36.23
2016-07-02T08:10:43.390Z,35.9
2016-07-02T08:11:42.151Z,35.6
2016-07-02T08:12:41.463Z,35.5
2016-07-02T08:13:41.491Z,35.31
2016-07-02T08:14:41.501Z,35.21
2016-07-02T08:15:41.513Z,35.07
2016-07-02T08:16:41.514Z,35.15
2016-07-02T08:17:41.540Z,34.96
2016-07-02T08:18:41.549Z,34.87
2016-07-02T08:19:41.570Z,34.61
2016-07-02T08:20:41.579Z,34.43
2016-07-02T08:21:41.592Z,34.31
2016-07-02T08:22:41.611Z,34.16
2016-07-02T08:23:41.629Z,33.98
2016-07-02T08:24:41.636Z,33.95
2016-07-02T08:25:41.643Z,33.86
2016-07-02T08:26:41.661Z,33.71
2016-07-02T08:27:41.669Z,33.76
2016-07-02T08:28:41.691Z,33.66
2016-07-02T08:29:41.692Z,33.54
2016-07-02T08:30:41.714Z,33.51
2016-07-02T08:31:41.723Z,33.28
2016-07-02T08:32:41.729Z,33.18
2016-07-02T08:33:41.744Z,33.07
2016-07-02T08:34:41.764Z,33.01
2016-07-02T08:35:41.771Z,32.88
2016-07-02T08:36:41.785Z,32.88
2016-07-02T08:37:41.796Z,32.93
2016-07-02T08:38:41.803Z,32.99
2016-07-02T08:39:41.811Z,33.01
2016-07-02T08:40:41.814Z,33.09
2016-07-02T08:41:41.824Z,33.23
2016-07-02T08:42:41.849Z,33.31
2016-07-02T08:43:41.852Z,33.47
2016-07-02T08:44:41.876Z,33.44
2016-07-02T08:45:41.879Z,33.53
2016-07-02T08:46:41.894Z,33.6
2016-07-02T08:47:41.908Z,33.73
2016-07-02T08:48:41.912Z,33.71
2016-07-02T08:49:41.926Z,33.84
2016-07-02T08:50:42.833Z,33.87
2016-07-02T08:51:42.546Z,33.9
2016-07-02T08:54:41.975Z,33.76
2016-07-02T08:55:41.992Z,33.78
2016-07-02T08:56:41.996Z,33.63
2016-07-02T08:57:42.309Z,33.65
2016-07-02T08:58:42.028Z,33.71
2016-07-02T09:00:42.455Z,33.79
2016-07-02T09:01:42.862Z,33.76
2016-07-02T09:02:42.624Z,33.86
2016-07-02T09:03:42.087Z,33.84
2016-07-02T09:04:42.344Z,33.84
2016-07-02T09:05:42.463Z,33.73
2016-07-02T09:06:42.119Z,33.54
2016-07-02T09:07:42.131Z,33.38
2016-07-02T09:08:42.152Z,33.31
2016-07-02T09:09:42.156Z,33.31
2016-07-02T09:10:42.167Z,33.29
2016-07-02T09:11:42.170Z,33.32
2016-07-02T09:12:42.195Z,33.35
2016-07-02T09:13:42.194Z,33.29
2016-07-02T09:14:42.218Z,33.22
2016-07-02T09:15:42.230Z,33.09
2016-07-02T09:17:43.458Z,32.78
2016-07-02T09:18:42.258Z,32.69
2016-07-02T09:19:42.425Z,32.3
2016-07-02T09:20:42.503Z,32.15
2016-07-02T09:21:42.289Z,31.95
2016-07-02T09:22:42.301Z,31.72
2016-07-02T09:23:42.317Z,31.54
2016-07-02T09:24:42.321Z,31.39
2016-07-02T09:25:43.831Z,31.21
2016-07-02T09:27:44.146Z,30.7
2016-07-02T09:28:44.932Z,30.27
2016-07-02T09:29:42.379Z,30.01
2016-07-02T09:30:42.392Z,29.74
2016-07-02T09:31:42.536Z,29.58
2016-07-02T09:32:42.688Z,29.57
2016-07-02T09:33:42.412Z,29.34
2016-07-02T09:34:42.425Z,29.16
2016-07-02T09:35:42.441Z,29.08
2016-07-02T09:36:42.446Z,29.14
2016-07-02T09:37:42.456Z,29.27
2016-07-02T09:38:42.465Z,29.37
2016-07-02T09:39:42.463Z,29.42
2016-07-02T09:40:42.483Z,29.52
2016-07-02T09:41:42.487Z,29.57
2016-07-02T09:42:42.493Z,29.6
2016-07-02T09:43:42.511Z,29.7
2016-07-02T09:44:42.522Z,29.63
2016-07-02T09:45:42.521Z,29.83
2016-07-02T09:46:42.534Z,29.7
2016-07-02T09:47:42.540Z,29.73
2016-07-02T09:48:42.556Z,29.76
2016-07-02T09:49:42.566Z,29.71
2016-07-02T09:50:42.563Z,29.7
2016-07-02T09:51:42.576Z,29.65
2016-07-02T09:52:42.579Z,29.63
2016-07-02T09:53:42.589Z,29.57
2016-07-02T09:54:42.607Z,29.45
2016-07-02T09:55:42.613Z,29.34
2016-07-02T09:56:42.634Z,29.21
2016-07-02T09:57:42.635Z,29.05
2016-07-02T09:58:42.642Z,29.11
2016-07-02T09:59:42.638Z,29.02
2016-07-02T10:00:42.650Z,28.96
2016-07-02T10:01:42.654Z,28.8
2016-07-02T10:02:42.676Z,28.76
2016-07-02T10:03:42.670Z,28.64
2016-07-02T10:04:42.682Z,28.55
2016-07-02T10:05:42.684Z,28.46
2016-07-02T10:06:42.703Z,28.44
2016-07-02T10:07:42.703Z,28.31
2016-07-02T10:09:43.371Z,28.15
2016-07-02T10:10:43.129Z,28.12
2016-07-02T10:11:42.828Z,28.09
2016-07-02T10:12:43.638Z,28.02
2016-07-02T10:13:42.754Z,27.94
2016-07-02T10:14:42.963Z,27.85
2016-07-02T10:15:42.758Z,27.74
2016-07-02T10:16:42.768Z,27.59
2016-07-02T10:17:43.791Z,27.5
2016-07-02T10:19:43.440Z,27.39
2016-07-02T10:20:44.001Z,27.25
2016-07-02T10:21:42.818Z,27.29
2016-07-02T10:22:42.861Z,27.29
2016-07-02T10:23:42.813Z,27.36
2016-07-02T10:24:42.826Z,27.39
2016-07-02T10:25:42.840Z,27.41
2016-07-02T10:26:42.845Z,27.44
2016-07-02T10:27:42.851Z,27.44
2016-07-02T10:28:42.850Z,27.49
2016-07-02T10:29:42.862Z,27.46
2016-07-02T10:30:42.874Z,27.49
2016-07-02T10:31:42.871Z,27.59
2016-07-02T10:32:42.876Z,27.62
2016-07-02T10:33:42.891Z,27.72
2016-07-02T10:34:42.896Z,27.67
2016-07-02T10:36:45.870Z,27.85
2016-07-02T10:37:43.860Z,27.84
2016-07-02T10:38:44.814Z,28
2016-07-02T10:39:44.424Z,27.97
2016-07-02T10:40:43.193Z,28.09
2016-07-02T10:41:42.946Z,28.18
2016-07-02T10:42:42.943Z,28.39
2016-07-02T10:43:42.957Z,28.4
2016-07-02T10:44:44.441Z,28.61
2016-07-02T10:45:44.354Z,28.85
2016-07-02T10:46:42.977Z,28.93
2016-07-02T10:47:44.567Z,29
2016-07-02T10:48:42.988Z,29.14
2016-07-02T10:49:43.003Z,29.36
2016-07-02T10:50:43.005Z,29.48
2016-07-02T10:51:43.137Z,29.71
2016-07-02T10:52:43.044Z,29.79
2016-07-02T10:53:43.037Z,29.95
2016-07-02T10:54:43.053Z,29.97
2016-07-02T10:55:43.057Z,30.13
2016-07-02T10:56:43.058Z,30.34
2016-07-02T10:57:43.069Z,30.46
2016-07-02T10:58:43.078Z,30.49
2016-07-02T10:59:43.083Z,30.61
2016-07-02T11:00:43.092Z,30.6
2016-07-02T11:01:43.109Z,30.61
2016-07-02T11:02:43.111Z,30.43
2016-07-02T11:03:43.115Z,30.31
2016-07-02T11:04:43.125Z,30.15
2016-07-02T11:05:43.140Z,29.74
2016-07-02T11:06:43.151Z,29.48
2016-07-02T11:07:43.164Z,29.18
2016-07-02T11:08:43.167Z,28.93
2016-07-02T11:09:43.179Z,28.54
2016-07-02T11:10:43.199Z,28.22
2016-07-02T11:11:43.190Z,28
2016-07-02T11:12:43.203Z,28.06
2016-07-02T11:13:43.210Z,28
2016-07-02T11:14:43.217Z,27.87
2016-07-02T11:15:43.225Z,27.92
2016-07-02T11:16:43.236Z,27.96
2016-07-02T11:17:43.257Z,28
2016-07-02T11:18:43.253Z,28.11
2016-07-02T11:19:43.267Z,28.11
2016-07-02T11:20:43.267Z,28.11
2016-07-02T11:21:43.281Z,28.06
2016-07-02T11:22:43.284Z,28.07
2016-07-02T11:23:43.297Z,27.94
2016-07-02T11:24:43.304Z,27.88
2016-07-02T11:25:43.318Z,27.87
2016-07-02T11:26:43.320Z,27.72
2016-07-02T11:27:43.329Z,27.59
2016-07-02T11:29:43.345Z,27.19
2016-07-02T11:30:43.350Z,26.81
2016-07-02T11:31:43.805Z,26.47
2016-07-02T11:32:43.372Z,25.99
2016-07-02T11:33:43.379Z,25.73
2016-07-02T11:34:43.383Z,25.35
2016-07-02T11:35:43.386Z,24.9
2016-07-02T11:36:44.249Z,24.49
2016-07-02T11:37:44.058Z,23.91
2016-07-02T11:38:43.409Z,23.42
2016-07-02T11:39:44.268Z,22.88
2016-07-02T11:40:44.368Z,22.51
2016-07-02T11:41:44.038Z,22.25
2016-07-02T11:42:43.437Z,22.1
2016-07-02T11:43:43.439Z,21.92
2016-07-02T11:44:43.448Z,21.77
2016-07-02T11:45:43.461Z,21.53
2016-07-02T11:46:43.458Z,21.17
2016-07-02T11:47:43.470Z,20.88
2016-07-02T11:48:43.476Z,20.62
2016-07-02T11:49:43.481Z,20.32
2016-07-02T11:50:43.476Z,20.23
2016-07-02T11:51:43.482Z,20.06
2016-07-02T11:52:43.482Z,19.88
2016-07-02T11:54:46.456Z,19.73
2016-07-02T11:55:43.495Z,19.66
2016-07-02T11:56:44.310Z,19.66
2016-07-02T11:57:43.508Z,19.78
2016-07-02T11:58:43.510Z,19.71
2016-07-02T11:59:43.507Z,19.66
2016-07-02T12:00:43.513Z,19.62
2016-07-02T12:01:43.517Z,19.55
2016-07-02T12:02:43.921Z,19.51
2016-07-02T12:03:45.096Z,19.46
2016-07-02T12:04:44.777Z,19.43
2016-07-02T12:05:44.248Z,19.41
2016-07-02T12:06:43.521Z,19.43
2016-07-02T12:07:43.530Z,19.39
2016-07-02T12:08:43.534Z,19.36
2016-07-02T12:09:43.527Z,19.51
2016-07-02T12:10:43.525Z,19.51
2016-07-02T12:11:43.526Z,19.47
2016-07-02T12:12:43.529Z,19.33
2016-07-02T12:13:43.536Z,19.32
2016-07-02T12:14:43.538Z,19.21
2016-07-02T12:15:43.534Z,19.13
2016-07-02T12:16:43.536Z,19.11
2016-07-02T12:17:43.534Z,19.1
2016-07-02T12:18:43.545Z,19.16
2016-07-02T12:19:43.540Z,19.18
2016-07-02T12:20:43.545Z,19.16
2016-07-02T12:21:43.545Z,19.07
2016-07-02T12:22:43.549Z,19.02
2016-07-02T12:23:43.547Z,19.06
2016-07-02T12:24:43.556Z,19.06
2016-07-02T12:25:43.545Z,19.13
2016-07-02T12:26:43.559Z,19.07
2016-07-02T12:27:43.545Z,19.04
2016-07-02T12:28:43.565Z,19.06
2016-07-02T12:29:43.566Z,18.92
2016-07-02T12:30:43.558Z,18.91
2016-07-02T12:31:43.560Z,18.85
2016-07-02T12:32:43.561Z,18.81
2016-07-02T12:33:43.559Z,18.8
2016-07-02T12:34:43.562Z,18.76
2016-07-02T12:35:43.568Z,18.67
2016-07-02T12:36:43.555Z,18.58
2016-07-02T12:37:43.554Z,18.55
2016-07-02T12:38:43.556Z,18.51
2016-07-02T12:39:43.564Z,18.52
2016-07-02T12:40:43.566Z,18.5
2016-07-02T12:41:43.570Z,18.45
2016-07-02T12:42:43.570Z,18.5
2016-07-02T12:43:43.566Z,18.51
2016-07-02T12:44:43.570Z,18.39
2016-07-02T12:45:44.017Z,18.42
2016-07-02T12:47:14.155Z,18.45
2016-07-02T12:47:44.368Z,18.44
2016-07-02T12:48:43.721Z,18.44
2016-07-02T12:49:44.073Z,18.37
2016-07-02T12:50:58.565Z,18.41
2016-07-02T12:51:43.777Z,18.52
2016-07-02T12:52:43.581Z,18.51
2016-07-02T12:53:43.569Z,18.6
2016-07-02T12:54:44.625Z,18.7
2016-07-02T12:55:44.435Z,18.72
2016-07-02T12:56:58.464Z,18.66
2016-07-02T12:57:43.925Z,18.66
2016-07-02T12:58:43.578Z,18.69
2016-07-02T12:59:43.578Z,18.66
2016-07-02T13:00:43.576Z,18.72
2016-07-02T13:01:43.572Z,18.69
2016-07-02T13:02:43.585Z,18.8
2016-07-02T13:03:43.576Z,18.84
2016-07-02T13:04:43.580Z,18.82
2016-07-02T13:05:43.585Z,19
2016-07-02T13:06:43.582Z,19
2016-07-02T13:07:43.574Z,19
2016-07-02T13:08:43.587Z,19.1
2016-07-02T13:09:43.576Z,19.07
2016-07-02T13:10:44.181Z,19.14
2016-07-02T13:11:44.980Z,19.14
2016-07-02T13:12:46.627Z,19.06
2016-07-02T13:13:44.443Z,19.06
2016-07-02T13:14:44.255Z,19.13